Time;durP1;ratioP1;P1;durP2;ratioP2;P2;SDS_P1;SDS_P2;PMS_P1;PMS_P2;Temp;Humidity;BMP_temperature;BMP_pressure;BME280_temperature;BME280_humidity;BME280_pressure;Samples;Min_cycle;Max_cycle;Signal;HPM_P1;HPM_P2
2023/10/06 00:01:53;;;;;;;6.40;1.90;;;;;;;9.07;100.00;99661.66;4168410;28;20216;-49
2023/10/06 00:03:58;;;;;;;1.88;1.77;;;;;;;9.01;100.00;99662.50;4186188;28;20217;-50
2023/10/06 00:05:59;;;;;;;5.90;2.58;;;;;;;9.03;100.00;99667.75;4173197;28;20239;-51
2023/10/06 00:08:17;;;;;;;3.28;1.55;;;;;;;9.03;100.00;99665.03;4178211;28;20197;-53
2023/10/06 00:10:21;;;;;;;1.30;1.20;;;;;;;8.95;100.00;99657.06;4175825;28;20705;-49
2023/10/06 00:12:26;;;;;;;1.00;1.00;;;;;;;8.90;100.00;99660.41;4175285;28;20212;-49
2023/10/06 00:14:40;;;;;;;2.63;1.70;;;;;;;8.88;100.00;99657.06;4158138;28;20205;-49
2023/10/06 00:16:41;;;;;;;1.40;1.30;;;;;;;8.86;100.00;99658.31;4174648;28;20327;-50
2023/10/06 00:18:43;;;;;;;1.27;1.17;;;;;;;8.89;100.00;99655.19;4174998;28;20686;-48
2023/10/06 00:20:48;;;;;;;1.30;1.20;;;;;;;8.93;100.00;99659.13;4174518;28;20270;-52
2023/10/06 00:22:50;;;;;;;6.03;1.52;;;;;;;8.81;100.00;99656.22;4171238;28;20208;-51
2023/10/06 00:24:55;;;;;;;1.95;1.75;;;;;;;8.79;100.00;99669.25;4176435;28;20212;-50
2023/10/06 00:27:00;;;;;;;1.60;1.50;;;;;;;8.80;100.00;99660.00;4171158;28;20231;-50
2023/10/06 00:29:02;;;;;;;1.70;1.60;;;;;;;8.83;100.00;99658.75;4168765;28;20670;-50
2023/10/06 00:31:08;;;;;;;2.20;1.98;;;;;;;8.84;100.00;99652.22;4190442;28;20203;-52
2023/10/06 00:33:10;;;;;;;3.67;2.70;;;;;;;8.84;100.00;99654.97;4161314;28;20215;-52
2023/10/06 00:35:14;;;;;;;5.57;3.58;;;;;;;8.84;100.00;99663.16;4180771;28;20215;-49
2023/10/06 00:37:16;;;;;;;5.03;3.20;;;;;;;8.81;100.00;99660.84;4157454;28;20257;-55
2023/10/06 00:39:22;;;;;;;4.13;3.30;;;;;;;8.73;100.00;99669.22;4165968;28;20579;-47
2023/10/06 00:41:27;;;;;;;3.22;2.92;;;;;;;8.66;100.00;99658.34;4167226;28;20269;-50
2023/10/06 00:43:39;;;;;;;3.20;2.63;;;;;;;8.67;100.00;99664.59;4174349;28;20211;-50
2023/10/06 00:45:44;;;;;;;8.70;2.55;;;;;;;8.67;100.00;99653.69;4173125;28;20235;-49
2023/10/06 00:47:45;;;;;;;3.53;2.50;;;;;;;8.66;100.00;99652.88;4172962;28;20211;-54
2023/10/06 00:49:47;;;;;;;2.33;2.03;;;;;;;8.66;100.00;99657.47;4159407;28;20204;-50
2023/10/06 00:51:49;;;;;;;4.35;2.10;;;;;;;8.63;100.00;99660.63;4175596;28;20669;-50
2023/10/06 00:53:56;;;;;;;2.55;1.67;;;;;;;8.61;100.00;99660.84;4155897;28;20215;-50
2023/10/06 00:56:10;;;;;;;1.30;1.20;;;;;;;8.57;100.00;99659.59;4174462;28;20224;-52
2023/10/06 00:58:12;;;;;;;2.28;1.52;;;;;;;8.55;100.00;99649.94;4187985;28;20746;-51
2023/10/06 01:00:20;;;;;;;1.25;1.23;;;;;;;8.54;100.00;99649.09;4186915;28;20709;-51
2023/10/06 01:02:23;;;;;;;2.28;1.30;;;;;;;8.53;100.00;99646.56;4170168;28;20926;-50
2023/10/06 01:04:25;;;;;;;1.30;1.20;;;;;;;8.54;100.00;99653.72;4173141;28;20212;-50
2023/10/06 01:06:33;;;;;;;1.48;1.38;;;;;;;8.52;100.00;99644.88;4172872;28;20751;-52
2023/10/06 01:08:35;;;;;;;1.27;1.10;;;;;;;8.47;100.00;99642.78;4157718;28;20208;-50
2023/10/06 01:10:40;;;;;;;1.65;1.52;;;;;;;8.39;100.00;99639.44;4165041;28;20204;-51
2023/10/06 01:12:42;;;;;;;0.90;0.90;;;;;;;8.37;100.00;99642.38;4169233;28;20292;-49
2023/10/06 01:14:44;;;;;;;1.00;1.00;;;;;;;8.33;100.00;99640.25;4172811;28;20211;-50
2023/10/06 01:16:49;;;;;;;1.23;1.10;;;;;;;8.30;100.00;99640.69;4166453;28;20231;-50
2023/10/06 01:19:00;;;;;;;1.25;1.15;;;;;;;8.29;100.00;99644.47;4171689;28;20208;-51
2023/10/06 01:21:13;;;;;;;1.02;0.95;;;;;;;8.33;100.00;99645.72;4169208;28;20220;-50
2023/10/06 01:23:21;;;;;;;1.20;1.10;;;;;;;8.30;100.00;99651.59;4174928;28;20832;-49
2023/10/06 01:25:25;;;;;;;2.65;1.35;;;;;;;8.28;100.00;99649.06;4175318;28;20214;-51
2023/10/06 01:27:26;;;;;;;1.63;1.52;;;;;;;8.31;100.00;99658.72;4170712;28;20223;-48
2023/10/06 01:29:31;;;;;;;1.13;1.13;;;;;;;8.34;100.00;99652.88;4174711;28;20208;-50
2023/10/06 01:31:37;;;;;;;1.00;1.00;;;;;;;8.35;100.00;99660.00;4174091;28;20204;-47
2023/10/06 01:33:39;;;;;;;0.98;0.98;;;;;;;8.35;100.00;99649.09;4172358;28;20204;-47
2023/10/06 01:35:42;;;;;;;1.38;1.27;;;;;;;8.38;100.00;99651.38;4174408;28;20299;-47
2023/10/06 01:37:45;;;;;;;3.40;1.55;;;;;;;8.36;100.00;99650.75;4172254;28;20230;-48
2023/10/06 01:39:48;;;;;;;1.02;1.02;;;;;;;8.26;100.00;99644.88;4172468;28;20199;-49
2023/10/06 01:41:50;;;;;;;0.93;0.93;;;;;;;8.17;100.00;99652.38;4168888;28;20363;-49
2023/10/06 01:43:52;;;;;;;1.15;1.15;;;;;;;8.19;100.00;99643.97;4190388;28;20619;-51
2023/10/06 01:45:54;;;;;;;1.83;1.73;;;;;;;8.13;100.00;99644.81;4169933;28;20278;-50
2023/10/06 01:48:22;;;;;;;1.13;1.02;;;;;;;8.10;100.00;99642.50;4172323;28;20274;-51
2023/10/06 01:50:17;;;;;;;0.90;0.90;;;;;;;8.04;100.00;99641.47;4171930;28;20208;-52
2023/10/06 01:52:19;;;;;;;1.13;1.10;;;;;;;7.98;100.00;99644.16;4174945;28;20257;-54
2023/10/06 01:54:27;;;;;;;1.45;1.35;;;;;;;7.98;100.00;99649.59;4179117;28;20212;-54
2023/10/06 01:56:31;;;;;;;1.00;1.00;;;;;;;8.00;100.00;99650.22;4167055;28;20996;-49
2023/10/06 01:58:34;;;;;;;1.42;1.33;;;;;;;7.93;100.00;99643.91;4171674;28;20212;-50
2023/10/06 02:00:39;;;;;;;1.13;1.13;;;;;;;7.90;100.00;99655.25;4172767;28;20216;-52
2023/10/06 02:02:40;;;;;;;1.48;1.40;;;;;;;7.92;100.00;99653.16;4171063;28;20215;-51
2023/10/06 02:04:45;;;;;;;1.42;1.33;;;;;;;7.91;100.00;99640.56;4168607;28;20237;-51
2023/10/06 02:06:53;;;;;;;1.25;1.10;;;;;;;7.87;100.00;99639.28;4172245;28;20231;-53
2023/10/06 02:08:55;;;;;;;1.33;1.23;;;;;;;7.86;100.00;99633.03;4151219;28;20259;-51
2023/10/06 02:10:57;;;;;;;1.15;1.15;;;;;;;7.84;100.00;99639.72;4173521;28;20203;-50
2023/10/06 02:12:59;;;;;;;1.83;1.35;;;;;;;7.81;100.00;99629.25;4172101;28;20251;-52
2023/10/06 02:15:00;;;;;;;1.00;1.00;;;;;;;7.82;100.00;99622.75;4172402;28;20211;-54
2023/10/06 02:17:06;;;;;;;1.52;1.17;;;;;;;7.80;100.00;99622.09;4169770;28;20219;-51
2023/10/06 02:19:12;;;;;;;1.73;1.50;;;;;;;7.80;100.00;99630.25;4164473;28;20689;-54
2023/10/06 02:21:23;;;;;;;1.40;1.33;;;;;;;7.82;100.00;99631.72;4170814;28;20236;-49
2023/10/06 02:23:28;;;;;;;1.83;1.67;;;;;;;7.82;100.00;99628.19;4172581;28;20216;-51
2023/10/06 02:25:31;;;;;;;1.42;1.33;;;;;;;7.84;100.00;99637.00;4182799;28;20211;-50
2023/10/06 02:27:43;;;;;;;6.18;1.35;;;;;;;7.87;100.00;99637.41;4169071;28;20686;-49
2023/10/06 02:29:45;;;;;;;1.17;1.13;;;;;;;7.85;100.00;99630.50;4182865;28;20218;-51
2023/10/06 02:31:47;;;;;;;1.45;1.40;;;;;;;7.86;100.00;99626.72;4191369;28;20584;-50
2023/10/06 02:33:51;;;;;;;1.30;1.25;;;;;;;7.84;100.00;99626.94;4172040;28;20777;-52
2023/10/06 02:35:55;;;;;;;1.58;1.20;;;;;;;7.80;100.00;99619.34;4171056;28;20224;-52
2023/10/06 02:37:57;;;;;;;1.17;1.17;;;;;;;7.76;100.00;99621.66;4171419;28;20216;-52
2023/10/06 02:39:59;;;;;;;0.95;0.95;;;;;;;7.73;100.00;99622.09;4171112;28;20274;-50
2023/10/06 02:42:07;;;;;;;1.20;1.10;;;;;;;7.71;100.00;99618.72;4169572;28;20215;-50
2023/10/06 02:44:16;;;;;;;1.20;1.20;;;;;;;7.71;100.00;99617.88;4170771;28;20227;-52
2023/10/06 02:46:22;;;;;;;1.10;1.05;;;;;;;7.77;100.00;99611.59;4171807;28;20227;-51
2023/10/06 02:48:32;;;;;;;1.90;1.75;;;;;;;7.73;100.00;99615.78;4168640;28;20215;-52
2023/10/06 02:50:34;;;;;;;1.38;1.30;;;;;;;7.68;100.00;99613.69;4169412;28;20224;-49
2023/10/06 02:52:42;;;;;;;1.40;1.38;;;;;;;7.68;100.00;99618.31;4184072;28;20211;-49
2023/10/06 02:57:04;;;;;;;0.80;0.80;;;;;;;7.56;100.00;99611.75;4172595;28;20228;-49
2023/10/06 02:59:26;;;;;;;4.53;1.17;;;;;;;7.56;100.00;99609.84;4171643;28;20208;-51
2023/10/06 03:01:28;;;;;;;1.45;1.35;;;;;;;7.55;100.00;99612.81;4177609;28;21063;-50
2023/10/06 03:03:33;;;;;;;1.65;1.55;;;;;;;7.54;100.00;99616.53;4175285;28;20969;-51
2023/10/06 03:05:39;;;;;;;1.38;1.27;;;;;;;7.53;100.00;99603.97;4155639;28;20278;-50
2023/10/06 03:07:45;;;;;;;1.33;1.25;;;;;;;7.50;100.00;99604.41;4169650;28;20322;-50
2023/10/06 03:09:48;;;;;;;1.20;1.10;;;;;;;7.52;100.00;99605.88;4175274;28;20286;-50
2023/10/06 03:11:50;;;;;;;1.55;1.45;;;;;;;7.50;100.00;99610.66;4174616;28;20578;-50
2023/10/06 03:13:54;;;;;;;1.40;1.27;;;;;;;7.52;100.00;99607.75;4170137;28;20212;-50
2023/10/06 03:15:57;;;;;;;1.67;1.58;;;;;;;7.48;100.00;99596.44;4157061;28;20590;-49
2023/10/06 03:17:58;;;;;;;1.25;1.20;;;;;;;7.44;100.00;99594.31;4158903;28;20201;-50
2023/10/06 03:20:11;;;;;;;1.25;0.93;;;;;;;7.42;100.00;99590.97;4174257;28;20239;-50
2023/10/06 03:22:13;;;;;;;0.80;0.80;;;;;;;7.38;100.00;99595.13;4172794;28;20235;-51
2023/10/06 03:24:25;;;;;;;1.10;1.10;;;;;;;7.40;100.00;99598.47;4174736;28;20208;-50
2023/10/06 03:26:34;;;;;;;1.38;1.05;;;;;;;7.37;100.00;99599.72;4174860;28;20227;-52
2023/10/06 03:28:36;;;;;;;1.48;1.33;;;;;;;7.39;100.00;99603.09;4176039;28;20212;-50
2023/10/06 03:30:41;;;;;;;1.58;1.48;;;;;;;7.39;100.00;99596.81;4167821;28;20255;-52
2023/10/06 03:32:44;;;;;;;1.00;1.00;;;;;;;7.40;100.00;99595.75;4168531;28;20708;-50
2023/10/06 03:34:47;;;;;;;1.48;1.15;;;;;;;7.38;100.00;99606.03;4174553;28;20262;-50
2023/10/06 03:36:51;;;;;;;0.90;0.90;;;;;;;7.38;100.00;99608.75;4159009;28;20232;-50
2023/10/06 03:38:57;;;;;;;1.63;0.98;;;;;;;7.38;100.00;99600.56;4174517;28;20210;-52
2023/10/06 03:43:04;;;;;;;1.60;1.30;;;;;;;7.28;100.00;99605.56;4175079;28;20238;-50
2023/10/06 03:45:26;;;;;;;1.20;1.20;;;;;;;7.25;100.00;99605.97;4172636;28;20215;-54
2023/10/06 03:47:30;;;;;;;1.08;1.08;;;;;;;7.23;100.00;99599.88;4173245;28;20200;-55
2023/10/06 03:49:33;;;;;;;1.70;1.60;;;;;;;7.17;100.00;99598.78;4169017;28;20204;-53
2023/10/06 03:51:38;;;;;;;1.33;1.27;;;;;;;7.13;100.00;99608.41;4174703;28;20227;-52
2023/10/06 03:53:40;;;;;;;1.05;1.05;;;;;;;7.10;100.00;99603.38;4171170;28;20226;-53
2023/10/06 03:55:45;;;;;;;1.30;1.20;;;;;;;7.09;100.00;99606.31;4167933;28;20212;-51
2023/10/06 03:57:50;;;;;;;1.52;1.35;;;;;;;7.04;100.00;99604.19;4170997;28;20682;-50
2023/10/06 03:59:53;;;;;;;1.48;1.42;;;;;;;7.07;100.00;99602.94;4174295;28;20291;-51
2023/10/06 04:01:55;;;;;;;1.63;1.52;;;;;;;7.10;100.00;99597.09;4172199;28;20239;-50
2023/10/06 04:03:58;;;;;;;4.80;1.20;;;;;;;7.03;100.00;99601.66;4170905;28;20240;-50
2023/10/06 04:06:03;;;;;;;1.40;1.30;;;;;;;7.09;100.00;99595.44;4167753;28;20216;-53
2023/10/06 04:08:08;;;;;;;1.65;1.55;;;;;;;7.07;100.00;99592.03;4170584;28;20207;-54
2023/10/06 04:10:14;;;;;;;1.60;1.50;;;;;;;7.06;100.00;99595.81;4169415;28;20265;-52
2023/10/06 04:12:18;;;;;;;1.02;1.02;;;;;;;7.03;100.00;99596.22;4189516;28;20212;-50
2023/10/06 04:14:20;;;;;;;1.30;1.20;;;;;;;7.02;100.00;99602.72;4170844;28;20245;-50
2023/10/06 04:16:23;;;;;;;1.38;1.30;;;;;;;7.02;100.00;99602.72;4186216;28;20278;-50
2023/10/06 04:18:24;;;;;;;1.42;1.33;;;;;;;7.02;100.00;99600.00;4173620;28;20208;-52
2023/10/06 04:20:26;;;;;;;1.13;1.13;;;;;;;7.01;100.00;99592.84;4173721;28;20317;-49
2023/10/06 04:22:28;;;;;;;1.58;1.48;;;;;;;6.99;100.00;99601.22;4175348;28;20258;-52
2023/10/06 04:24:30;;;;;;;1.70;1.40;;;;;;;7.06;100.00;99601.25;4167702;28;20216;-51
2023/10/06 04:26:32;;;;;;;3.10;1.13;;;;;;;7.01;100.00;99587.41;4171824;28;20303;-54
2023/10/06 04:28:33;;;;;;;1.40;1.40;;;;;;;6.98;100.00;99598.69;4173405;28;20220;-49
2023/10/06 04:30:36;;;;;;;0.90;0.90;;;;;;;7.06;100.00;99595.81;4173802;28;20204;-50
2023/10/06 04:32:38;;;;;;;1.05;1.05;;;;;;;7.02;100.00;99595.38;4170197;28;20239;-50
2023/10/06 04:34:40;;;;;;;1.40;1.08;;;;;;;6.95;100.00;99601.84;4187875;28;20724;-53
2023/10/06 04:36:42;;;;;;;3.15;0.90;;;;;;;6.95;100.00;99607.28;4171582;28;20255;-53
2023/10/06 04:38:45;;;;;;;1.25;1.23;;;;;;;6.98;100.00;99605.00;4168163;28;20211;-54
2023/10/06 04:40:47;;;;;;;5.55;1.48;;;;;;;6.95;100.00;99621.72;4172402;28;20266;-50
2023/10/06 04:42:49;;;;;;;0.82;0.82;;;;;;;7.00;100.00;99623.81;4167404;28;20213;-52
2023/10/06 04:44:54;;;;;;;2.45;2.25;;;;;;;6.95;100.00;99626.31;4174671;28;20732;-52
2023/10/06 04:46:57;;;;;;;0.90;0.90;;;;;;;7.02;100.00;99624.47;4174531;28;20231;-51
2023/10/06 04:49:00;;;;;;;1.48;1.20;;;;;;;6.96;100.00;99623.38;4175127;28;20208;-50
2023/10/06 04:51:03;;;;;;;1.25;1.25;;;;;;;6.87;100.00;99629.19;4157765;28;20219;-52
2023/10/06 04:53:06;;;;;;;3.85;1.50;;;;;;;6.93;100.00;99629.25;4171447;28;20216;-50
2023/10/06 04:55:11;;;;;;;1.25;1.15;;;;;;;6.83;100.00;99622.47;4176029;28;20236;-52
2023/10/06 04:57:13;;;;;;;1.00;1.00;;;;;;;6.80;100.00;99622.84;4166340;28;20606;-51
2023/10/06 04:59:15;;;;;;;1.25;1.25;;;;;;;6.81;100.00;99619.09;4175040;28;20258;-50
2023/10/06 05:01:17;;;;;;;0.98;0.98;;;;;;;6.86;100.00;99616.63;4174961;28;20231;-51
2023/10/06 05:03:20;;;;;;;2.58;1.60;;;;;;;6.77;100.00;99612.38;4173387;28;20208;-54
2023/10/06 05:05:22;;;;;;;1.27;1.10;;;;;;;6.72;100.00;99614.84;4170161;28;20207;-52
2023/10/06 05:07:27;;;;;;;2.38;1.25;;;;;;;6.71;100.00;99613.19;4168357;28;20236;-50
2023/10/06 05:09:29;;;;;;;5.35;1.08;;;;;;;6.70;100.00;99622.38;4155464;28;20211;-54
2023/10/06 05:11:32;;;;;;;1.88;1.77;;;;;;;6.69;100.00;99615.25;4169634;28;20368;-50
2023/10/06 05:13:34;;;;;;;1.30;1.20;;;;;;;6.72;100.00;99620.28;4169079;28;20628;-50
2023/10/06 05:15:37;;;;;;;1.20;1.13;;;;;;;6.73;100.00;99616.53;4167134;28;20645;-51
2023/10/06 05:17:38;;;;;;;1.45;1.35;;;;;;;6.75;100.00;99619.91;4170477;28;20266;-51
2023/10/06 05:19:40;;;;;;;1.15;1.15;;;;;;;6.68;100.00;99614.41;4171889;28;20216;-54
2023/10/06 05:21:42;;;;;;;2.10;1.88;;;;;;;6.70;100.00;99616.94;4167803;28;20223;-52
2023/10/06 05:23:45;;;;;;;1.40;1.10;;;;;;;6.68;100.00;99619.03;4174115;28;20224;-50
2023/10/06 05:25:47;;;;;;;1.15;1.15;;;;;;;6.66;100.00;99621.09;4172636;28;20266;-50
2023/10/06 05:27:50;;;;;;;3.38;1.73;;;;;;;6.70;100.00;99620.47;4169755;28;20204;-51
2023/10/06 05:29:52;;;;;;;1.67;1.58;;;;;;;6.69;100.00;99615.25;4171307;28;20330;-50
2023/10/06 05:31:54;;;;;;;1.92;1.02;;;;;;;6.66;100.00;99607.50;4167862;28;20201;-49
2023/10/06 05:33:56;;;;;;;1.38;1.25;;;;;;;6.65;100.00;99608.53;4171827;28;20644;-49
2023/10/06 05:35:59;;;;;;;1.55;1.00;;;;;;;6.64;100.00;99609.56;4173441;28;20324;-53
2023/10/06 05:38:03;;;;;;;1.30;1.30;;;;;;;6.61;100.00;99613.53;4172411;28;20223;-53
2023/10/06 05:40:05;;;;;;;1.27;1.27;;;;;;;6.63;100.00;99621.50;4173076;28;20208;-52
2023/10/06 05:42:10;;;;;;;0.95;0.90;;;;;;;6.61;100.00;99623.56;4172860;28;20231;-52
2023/10/06 05:44:12;;;;;;;1.52;1.42;;;;;;;6.58;100.00;99623.97;4174388;28;20674;-52
2023/10/06 05:46:14;;;;;;;1.10;1.10;;;;;;;6.56;100.00;99631.47;4172825;28;20271;-52
2023/10/06 05:48:18;;;;;;;1.70;1.60;;;;;;;6.57;100.00;99633.16;4173235;28;20200;-50
2023/10/06 05:50:27;;;;;;;1.33;1.23;;;;;;;6.63;100.00;99633.19;4173202;28;20759;-51
2023/10/06 05:52:29;;;;;;;1.40;1.30;;;;;;;6.59;100.00;99636.50;4173128;28;20212;-50
2023/10/06 05:54:31;;;;;;;1.40;1.20;;;;;;;6.56;100.00;99647.81;4166692;28;20200;-50
2023/10/06 05:56:36;;;;;;;2.40;1.38;;;;;;;6.54;100.00;99653.44;4166600;28;20285;-52
2023/10/06 05:58:38;;;;;;;1.17;1.17;;;;;;;6.55;100.00;99646.13;4173494;28;20652;-50
2023/10/06 06:00:50;;;;;;;1.88;1.77;;;;;;;6.55;100.00;99640.69;4170711;28;20219;-53
2023/10/06 06:02:54;;;;;;;16.52;2.03;;;;;;;6.59;100.00;99631.94;4189753;28;20231;-50
2023/10/06 06:04:58;;;;;;;2.58;1.90;;;;;;;6.65;100.00;99630.28;4165589;28;20213;-49
2023/10/06 06:07:02;;;;;;;1.52;1.42;;;;;;;6.47;100.00;99632.66;4171679;28;20231;-51
2023/10/06 06:09:14;;;;;;;2.00;1.45;;;;;;;6.59;100.00;99628.34;4172463;28;20242;-49
2023/10/06 06:11:16;;;;;;;1.98;1.88;;;;;;;6.43;100.00;99636.81;4171551;28;20203;-50
2023/10/06 06:13:18;;;;;;;1.75;1.65;;;;;;;6.54;100.00;99628.09;4174853;28;20208;-49
2023/10/06 06:15:26;;;;;;;2.40;2.13;;;;;;;6.60;100.00;99624.59;4168938;28;20597;-52
2023/10/06 06:17:28;;;;;;;2.17;1.60;;;;;;;6.57;100.00;99620.38;4172590;28;20756;-53
2023/10/06 06:19:29;;;;;;;1.70;1.60;;;;;;;6.57;100.00;99616.84;4163506;28;20656;-54
2023/10/06 06:21:32;;;;;;;2.55;1.80;;;;;;;6.55;100.00;99617.03;4169607;28;20246;-51
2023/10/06 06:23:35;;;;;;;2.45;1.65;;;;;;;6.51;100.00;99620.34;4173045;28;20242;-49
2023/10/06 06:25:39;;;;;;;3.83;2.22;;;;;;;6.64;100.00;99625.91;4170870;28;20266;-50
2023/10/06 06:27:42;;;;;;;2.72;1.50;;;;;;;6.67;100.00;99628.19;4164531;28;20209;-54
2023/10/06 06:29:46;;;;;;;4.18;2.53;;;;;;;6.68;100.00;99635.34;4166789;28;20897;-49
2023/10/06 06:31:49;;;;;;;1.98;1.88;;;;;;;6.85;100.00;99647.59;4168169;28;20236;-51
2023/10/06 06:33:56;;;;;;;1.00;1.00;;;;;;;6.98;100.00;99647.69;4168066;28;20231;-51
2023/10/06 06:36:00;;;;;;;1.67;1.58;;;;;;;7.14;100.00;99647.34;4175868;28;20227;-49
2023/10/06 06:38:04;;;;;;;1.38;1.27;;;;;;;7.12;100.00;99644.84;4176598;28;20358;-49
2023/10/06 06:40:13;;;;;;;1.40;1.20;;;;;;;7.24;100.00;99640.53;4175350;28;20238;-49
2023/10/06 06:42:15;;;;;;;4.25;1.42;;;;;;;7.28;100.00;99644.50;4173185;28;20616;-49
2023/10/06 06:44:18;;;;;;;9.40;1.85;;;;;;;7.35;100.00;99639.13;4181378;28;20211;-49
2023/10/06 06:46:26;;;;;;;1.45;1.35;;;;;;;7.35;100.00;99644.56;4178543;28;20223;-48
2023/10/06 06:48:28;;;;;;;1.42;1.33;;;;;;;7.40;100.00;99652.94;4175853;28;20206;-49
2023/10/06 06:50:30;;;;;;;1.42;1.15;;;;;;;7.45;100.00;99655.91;4175832;28;20323;-50
2023/10/06 06:52:32;;;;;;;6.45;2.08;;;;;;;7.54;100.00;99657.41;4177710;28;20278;-49
2023/10/06 06:54:37;;;;;;;1.23;1.20;;;;;;;7.69;100.00;99658.13;4175821;28;20204;-49
2023/10/06 06:56:39;;;;;;;2.13;1.92;;;;;;;7.76;100.00;99664.44;4174817;28;20227;-48
2023/10/06 06:58:41;;;;;;;2.95;2.22;;;;;;;7.90;100.00;99661.53;4175157;28;20239;-52
2023/10/06 07:00:43;;;;;;;2.00;1.80;;;;;;;7.95;100.00;99648.13;4171837;28;20247;-50
2023/10/06 07:02:46;;;;;;;1.75;1.65;;;;;;;7.98;100.00;99641.44;4168739;28;20238;-55
2023/10/06 07:04:48;;;;;;;9.07;2.10;;;;;;;7.80;100.00;99643.88;4166263;28;20247;-48
2023/10/06 07:06:52;;;;;;;1.83;1.73;;;;;;;7.62;100.00;99649.06;4167615;28;20232;-50
2023/10/06 07:08:57;;;;;;;1.67;1.40;;;;;;;7.79;100.00;99647.66;4174870;28;20200;-49
2023/10/06 07:11:06;;;;;;;1.40;1.30;;;;;;;8.34;100.00;99658.31;4172488;28;20212;-48
2023/10/06 07:13:11;;;;;;;1.35;1.30;;;;;;;8.98;100.00;99657.47;4175788;28;20210;-48
2023/10/06 07:15:16;;;;;;;7.55;2.95;;;;;;;9.00;100.00;99649.06;4169179;28;20204;-48
2023/10/06 07:17:19;;;;;;;1.95;1.85;;;;;;;9.71;100.00;99654.34;4170526;28;20263;-48
2023/10/06 07:19:22;;;;;;;1.70;1.60;;;;;;;10.62;100.00;99663.91;4175366;28;20208;-48
2023/10/06 07:21:24;;;;;;;1.88;1.77;;;;;;;10.90;100.00;99652.28;4176270;28;20747;-48
2023/10/06 07:23:26;;;;;;;1.42;1.33;;;;;;;10.72;100.00;99654.16;4173596;28;20200;-49
2023/10/06 07:25:30;;;;;;;2.03;1.75;;;;;;;11.60;98.61;99654.56;4170083;28;20216;-48
2023/10/06 07:27:34;;;;;;;1.75;1.65;;;;;;;11.62;95.63;99646.91;4169123;28;20212;-48
2023/10/06 07:29:36;;;;;;;1.58;1.48;;;;;;;12.39;88.97;99646.09;4176137;28;20242;-48
2023/10/06 07:31:38;;;;;;;2.25;1.27;;;;;;;12.78;87.69;99651.78;4176894;28;20267;-48
2023/10/06 07:33:41;;;;;;;1.25;1.15;;;;;;;12.21;87.79;99652.47;4176894;28;20712;-49
2023/10/06 07:35:51;;;;;;;1.10;1.00;;;;;;;12.90;87.08;99647.16;4159228;28;20291;-49
2023/10/06 07:38:13;;;;;;;1.35;1.25;;;;;;;12.87;87.35;99647.63;4125477;28;20232;-48
2023/10/06 07:40:21;;;;;;;1.50;1.40;;;;;;;13.67;85.68;99657.81;4126807;28;20234;-48
2023/10/06 07:42:23;;;;;;;1.50;1.40;;;;;;;14.25;82.25;99669.53;4125378;28;20258;-48
2023/10/06 07:44:25;;;;;;;1.15;1.15;;;;;;;14.25;77.75;99675.03;4141662;28;20766;-50
2023/10/06 07:46:29;;;;;;;1.35;1.25;;;;;;;13.44;80.12;99671.56;4142835;28;20601;-49
2023/10/06 07:48:31;;;;;;;1.65;1.55;;;;;;;12.22;83.71;99665.13;4129118;28;20269;-49
2023/10/06 07:50:34;;;;;;;1.30;1.13;;;;;;;11.85;88.45;99662.69;4124409;28;20316;-48
2023/10/06 07:52:36;;;;;;;1.73;1.13;;;;;;;12.32;89.14;99675.53;4123059;28;20518;-48
2023/10/06 07:54:40;;;;;;;1.27;1.17;;;;;;;11.93;89.01;99660.47;4124606;28;20576;-47
2023/10/06 07:56:42;;;;;;;1.77;1.08;;;;;;;12.39;85.50;99663.41;4123877;28;20265;-48
2023/10/06 07:58:44;;;;;;;1.90;1.60;;;;;;;12.86;90.03;99662.44;4137325;28;20219;-49
2023/10/06 08:00:46;;;;;;;1.30;1.20;;;;;;;13.15;88.91;99660.69;4137484;28;20209;-48
2023/10/06 08:02:48;;;;;;;6.38;1.15;;;;;;;13.39;84.20;99665.13;4143129;28;20222;-47
2023/10/06 08:04:51;;;;;;;1.05;1.05;;;;;;;14.40;80.37;99669.81;4140504;28;20217;-47
2023/10/06 08:06:54;;;;;;;0.60;0.60;;;;;;;13.82;82.04;99657.25;4124765;28;20238;-47
2023/10/06 08:08:55;;;;;;;0.95;0.93;;;;;;;12.88;83.51;99659.44;4136978;28;20683;-48
2023/10/06 08:10:57;;;;;;;1.70;1.60;;;;;;;12.55;88.33;99661.88;4123543;28;20680;-48
2023/10/06 08:13:01;;;;;;;1.05;1.00;;;;;;;12.39;89.15;99655.19;4127302;28;20293;-47
2023/10/06 08:15:09;;;;;;;0.80;0.80;;;;;;;13.52;84.91;99657.47;4140311;28;20217;-47
2023/10/06 08:17:11;;;;;;;1.58;1.23;;;;;;;13.93;80.71;99657.25;4125271;28;22613;-48
2023/10/06 08:19:13;;;;;;;0.80;0.80;;;;;;;13.79;82.74;99660.53;4121392;28;20206;-48
2023/10/06 08:21:15;;;;;;;2.03;0.90;;;;;;;14.02;84.01;99669.53;4125854;28;20205;-47
2023/10/06 08:23:16;;;;;;;1.33;0.98;;;;;;;14.64;78.98;99676.03;4141842;28;20221;-48
2023/10/06 08:25:19;;;;;;;0.82;0.82;;;;;;;14.72;79.75;99670.97;4111414;28;20297;-47
2023/10/06 08:27:23;;;;;;;0.80;0.80;;;;;;;14.41;79.24;99671.47;4140913;28;20260;-48
2023/10/06 08:29:25;;;;;;;0.80;0.80;;;;;;;14.03;81.41;99673.16;4139199;28;20644;-48
2023/10/06 08:31:30;;;;;;;1.35;1.25;;;;;;;13.49;83.70;99666.19;4139057;28;20229;-48
2023/10/06 08:33:32;;;;;;;2.15;1.20;;;;;;;13.48;86.85;99659.00;4138758;28;20217;-48
2023/10/06 08:35:36;;;;;;;1.20;0.98;;;;;;;13.66;83.61;99658.88;4140133;28;20217;-48
2023/10/06 08:37:39;;;;;;;2.15;1.90;;;;;;;13.83;83.90;99664.47;4154192;28;20216;-48
2023/10/06 08:39:42;;;;;;;2.67;1.27;;;;;;;14.13;81.10;99667.84;4158140;28;20217;-48
2023/10/06 08:41:45;;;;;;;1.35;1.25;;;;;;;14.04;81.91;99667.38;4171996;28;20262;-48
2023/10/06 08:43:48;;;;;;;1.70;1.10;;;;;;;14.38;82.03;99663.69;4158639;28;20235;-48
2023/10/06 08:45:50;;;;;;;2.25;1.20;;;;;;;14.23;79.89;99665.34;4144074;28;20645;-48
2023/10/06 08:47:58;;;;;;;1.60;1.20;;;;;;;14.89;80.20;99660.78;4159900;28;20211;-47
2023/10/06 08:50:06;;;;;;;2.17;1.40;;;;;;;13.91;81.05;99656.66;4171346;28;20254;-47
2023/10/06 08:52:09;;;;;;;1.67;1.00;;;;;;;14.29;81.70;99658.84;4156106;28;20216;-47
2023/10/06 08:54:13;;;;;;;1.23;0.80;;;;;;;14.02;81.31;99652.19;4158648;28;20205;-47
2023/10/06 08:56:15;;;;;;;0.95;0.90;;;;;;;14.45;80.85;99661.66;4136497;28;20233;-48
2023/10/06 08:58:17;;;;;;;1.05;0.80;;;;;;;14.82;79.54;99660.09;4155385;28;20236;-48
2023/10/06 09:00:26;;;;;;;2.85;2.28;;;;;;;14.17;82.25;99661.59;4158640;28;20213;-48
2023/10/06 09:02:30;;;;;;;1.77;1.42;;;;;;;15.18;85.68;99656.00;4174405;28;20314;-49
2023/10/06 09:04:37;;;;;;;1.98;1.33;;;;;;;16.02;76.92;99652.84;4176499;28;20212;-48
2023/10/06 09:07:12;;;;;;;1.30;1.20;;;;;;;17.21;72.47;99648.56;4173444;28;20642;-48
2023/10/06 09:09:26;;;;;;;3.70;1.58;;;;;;;16.85;72.59;99655.97;4196762;22;20228;-50
2023/10/06 09:11:41;;;;;;;1.33;1.30;;;;;;;17.84;70.77;99656.72;4153426;28;20565;-48
2023/10/06 09:13:43;;;;;;;2.53;1.30;;;;;;;17.82;68.70;99650.63;4156745;28;20208;-50
2023/10/06 09:16:03;;;;;;;2.45;1.20;;;;;;;18.02;68.29;99644.34;4152516;28;20212;-49
2023/10/06 09:18:28;;;;;;;1.00;0.90;;;;;;;16.91;71.23;99644.72;4145838;28;20261;-49
2023/10/06 09:20:32;;;;;;;1.73;0.95;;;;;;;17.22;73.03;99635.53;4154269;28;20230;-49
2023/10/06 09:22:44;;;;;;;3.42;0.90;;;;;;;18.22;68.31;99630.56;4168128;28;20677;-50
2023/10/06 09:24:59;;;;;;;1.90;0.70;;;;;;;18.58;67.18;99629.59;4167756;28;20224;-50
2023/10/06 09:27:19;;;;;;;1.10;1.00;;;;;;;19.09;66.07;99631.28;4155950;28;20298;-52
2023/10/06 09:29:32;;;;;;;0.82;0.82;;;;;;;19.17;65.81;99633.53;4154817;28;20577;-48
2023/10/06 09:31:36;;;;;;;2.33;1.08;;;;;;;18.33;67.49;99626.78;4145178;28;20209;-48
2023/10/06 09:33:38;;;;;;;3.05;1.20;;;;;;;18.80;68.63;99633.81;4144112;28;20710;-48
2023/10/06 09:35:42;;;;;;;0.80;0.80;;;;;;;19.18;65.93;99632.41;4146448;28;20225;-48
2023/10/06 09:37:45;;;;;;;1.60;0.90;;;;;;;19.31;66.31;99634.66;4155637;28;20212;-48
2023/10/06 09:40:10;;;;;;;12.60;0.70;;;;;;;19.71;64.07;99626.25;4154563;28;20208;-47
2023/10/06 09:42:14;;;;;;;1.20;0.80;;;;;;;19.37;66.99;99623.25;4150214;28;20252;-50
2023/10/06 09:44:18;;;;;;;1.27;0.95;;;;;;;19.49;66.64;99626.56;4140028;28;20228;-50
2023/10/06 09:46:22;;;;;;;1.40;1.00;;;;;;;19.70;65.16;99627.34;4153901;28;20267;-48
2023/10/06 09:48:32;;;;;;;0.88;0.85;;;;;;;18.40;68.44;99619.03;4150619;28;20220;-49
2023/10/06 09:50:37;;;;;;;0.68;0.68;;;;;;;17.66;72.53;99609.28;4137587;28;20209;-50
2023/10/06 09:52:42;;;;;;;3.80;0.80;;;;;;;18.01;71.96;99601.13;4141357;28;20680;-48